sensor_id;sensor_type;location;lat;lon;timestamp;P1;durP1;ratioP1;P2;durP2;ratioP2
67544;SDS011;54380;47.770;11.150;2022-10-03T00:02:37;0.85;;;0.20;;
67544;SDS011;54380;47.770;11.150;2022-10-03T00:05:21;1.95;;;0.20;;
67544;SDS011;54380;47.770;11.150;2022-10-03T00:08:02;1.00;;;0.30;;
67544;SDS011;54380;47.770;11.150;2022-10-03T00:10:37;0.82;;;0.20;;
67544;SDS011;54380;47.770;11.150;2022-10-03T00:13:19;1.35;;;0.32;;
67544;SDS011;54380;47.770;11.150;2022-10-03T00:15:59;2.63;;;0.32;;
67544;SDS011;54380;47.770;11.150;2022-10-03T00:18:33;1.27;;;0.30;;
67544;SDS011;54380;47.770;11.150;2022-10-03T00:21:18;0.95;;;0.30;;
67544;SDS011;54380;47.770;11.150;2022-10-03T00:23:58;0.82;;;0.13;;
67544;SDS011;54380;47.770;11.150;2022-10-03T00:26:36;1.63;;;0.17;;
67544;SDS011;54380;47.770;11.150;2022-10-03T00:29:23;1.92;;;0.30;;
67544;SDS011;54380;47.770;11.150;2022-10-03T00:32:01;2.08;;;0.32;;
67544;SDS011;54380;47.770;11.150;2022-10-03T00:34:40;1.88;;;0.20;;
67544;SDS011;54380;47.770;11.150;2022-10-03T00:37:23;1.40;;;0.30;;
67544;SDS011;54380;47.770;11.150;2022-10-03T00:40:03;1.38;;;0.30;;
67544;SDS011;54380;47.770;11.150;2022-10-03T00:46:04;2.63;;;0.40;;
67544;SDS011;54380;47.770;11.150;2022-10-03T00:51:51;2.35;;;0.65;;
67544;SDS011;54380;47.770;11.150;2022-10-03T00:57:36;3.63;;;0.57;;
67544;SDS011;54380;47.770;11.150;2022-10-03T01:00:21;3.15;;;0.52;;
67544;SDS011;54380;47.770;11.150;2022-10-03T01:02:57;2.05;;;0.43;;
67544;SDS011;54380;47.770;11.150;2022-10-03T01:05:39;3.35;;;0.50;;
67544;SDS011;54380;47.770;11.150;2022-10-03T01:08:27;2.95;;;0.43;;
67544;SDS011;54380;47.770;11.150;2022-10-03T01:11:06;5.22;;;0.80;;
67544;SDS011;54380;47.770;11.150;2022-10-03T01:13:47;2.80;;;0.55;;
67544;SDS011;54380;47.770;11.150;2022-10-03T01:16:29;3.17;;;0.60;;
67544;SDS011;54380;47.770;11.150;2022-10-03T01:19:06;2.55;;;0.55;;
67544;SDS011;54380;47.770;11.150;2022-10-03T01:21:49;3.88;;;0.63;;
67544;SDS011;54380;47.770;11.150;2022-10-03T01:24:50;3.63;;;0.60;;
67544;SDS011;54380;47.770;11.150;2022-10-03T01:27:23;6.63;;;0.85;;
67544;SDS011;54380;47.770;11.150;2022-10-03T01:29:58;3.78;;;0.50;;
67544;SDS011;54380;47.770;11.150;2022-10-03T01:32:47;4.45;;;0.95;;
67544;SDS011;54380;47.770;11.150;2022-10-03T01:35:22;4.13;;;0.80;;
67544;SDS011;54380;47.770;11.150;2022-10-03T01:40:34;2.40;;;0.40;;
67544;SDS011;54380;47.770;11.150;2022-10-03T01:43:09;5.30;;;0.73;;
67544;SDS011;54380;47.770;11.150;2022-10-03T01:45:53;3.08;;;0.70;;
67544;SDS011;54380;47.770;11.150;2022-10-03T01:48:30;3.30;;;0.50;;
67544;SDS011;54380;47.770;11.150;2022-10-03T01:51:06;5.10;;;0.73;;
67544;SDS011;54380;47.770;11.150;2022-10-03T01:53:39;3.53;;;0.63;;
67544;SDS011;54380;47.770;11.150;2022-10-03T01:56:17;3.63;;;0.57;;
67544;SDS011;54380;47.770;11.150;2022-10-03T01:58:52;4.35;;;0.73;;
67544;SDS011;54380;47.770;11.150;2022-10-03T02:01:30;3.75;;;0.60;;
67544;SDS011;54380;47.770;11.150;2022-10-03T02:04:05;2.72;;;0.45;;
67544;SDS011;54380;47.770;11.150;2022-10-03T02:06:43;3.28;;;0.40;;
67544;SDS011;54380;47.770;11.150;2022-10-03T02:09:18;3.95;;;0.50;;
67544;SDS011;54380;47.770;11.150;2022-10-03T02:12:00;3.80;;;0.60;;
67544;SDS011;54380;47.770;11.150;2022-10-03T02:14:41;3.65;;;0.55;;
67544;SDS011;54380;47.770;11.150;2022-10-03T02:17:23;2.78;;;0.40;;
67544;SDS011;54380;47.770;11.150;2022-10-03T02:19:59;3.30;;;0.65;;
67544;SDS011;54380;47.770;11.150;2022-10-03T02:22:35;3.67;;;0.50;;
67544;SDS011;54380;47.770;11.150;2022-10-03T02:25:11;3.63;;;0.55;;
67544;SDS011;54380;47.770;11.150;2022-10-03T02:30:55;6.28;;;0.80;;
67544;SDS011;54380;47.770;11.150;2022-10-03T02:33:50;3.40;;;0.50;;
67544;SDS011;54380;47.770;11.150;2022-10-03T02:43:01;2.58;;;0.40;;
67544;SDS011;54380;47.770;11.150;2022-10-03T02:58:07;4.63;;;0.55;;
67544;SDS011;54380;47.770;11.150;2022-10-03T03:04:14;2.67;;;0.50;;
67544;SDS011;54380;47.770;11.150;2022-10-03T03:10:13;3.83;;;1.00;;
67544;SDS011;54380;47.770;11.150;2022-10-03T03:16:04;4.10;;;0.60;;
67544;SDS011;54380;47.770;11.150;2022-10-03T03:19:01;2.70;;;0.50;;
67544;SDS011;54380;47.770;11.150;2022-10-03T03:21:39;6.57;;;0.90;;
67544;SDS011;54380;47.770;11.150;2022-10-03T03:24:12;3.85;;;0.60;;
67544;SDS011;54380;47.770;11.150;2022-10-03T03:29:49;6.80;;;0.93;;
67544;SDS011;54380;47.770;11.150;2022-10-03T03:32:27;4.53;;;0.75;;
67544;SDS011;54380;47.770;11.150;2022-10-03T03:35:05;3.63;;;0.60;;
67544;SDS011;54380;47.770;11.150;2022-10-03T03:37:45;5.50;;;0.95;;
67544;SDS011;54380;47.770;11.150;2022-10-03T03:40:27;6.15;;;1.02;;
67544;SDS011;54380;47.770;11.150;2022-10-03T03:43:10;5.13;;;0.75;;
67544;SDS011;54380;47.770;11.150;2022-10-03T03:45:51;7.18;;;0.90;;
67544;SDS011;54380;47.770;11.150;2022-10-03T03:48:34;4.82;;;0.90;;
67544;SDS011;54380;47.770;11.150;2022-10-03T03:51:29;7.35;;;1.25;;
67544;SDS011;54380;47.770;11.150;2022-10-03T03:54:09;6.95;;;1.17;;
67544;SDS011;54380;47.770;11.150;2022-10-03T03:56:55;7.07;;;1.42;;
67544;SDS011;54380;47.770;11.150;2022-10-03T03:59:43;9.95;;;1.70;;
67544;SDS011;54380;47.770;11.150;2022-10-03T04:02:27;6.68;;;1.15;;
67544;SDS011;54380;47.770;11.150;2022-10-03T04:05:12;7.70;;;1.38;;
67544;SDS011;54380;47.770;11.150;2022-10-03T04:07:55;6.50;;;1.20;;
67544;SDS011;54380;47.770;11.150;2022-10-03T04:10:42;7.47;;;1.08;;
67544;SDS011;54380;47.770;11.150;2022-10-03T04:16:40;5.20;;;0.98;;
67544;SDS011;54380;47.770;11.150;2022-10-03T04:19:42;7.55;;;1.05;;
67544;SDS011;54380;47.770;11.150;2022-10-03T04:22:23;5.50;;;0.95;;
67544;SDS011;54380;47.770;11.150;2022-10-03T04:25:08;6.70;;;1.05;;
67544;SDS011;54380;47.770;11.150;2022-10-03T04:30:58;6.10;;;1.08;;
67544;SDS011;54380;47.770;11.150;2022-10-03T04:33:34;6.68;;;1.27;;
67544;SDS011;54380;47.770;11.150;2022-10-03T04:39:19;4.75;;;0.90;;
67544;SDS011;54380;47.770;11.150;2022-10-03T04:41:55;11.38;;;2.05;;
67544;SDS011;54380;47.770;11.150;2022-10-03T04:44:34;3.97;;;0.70;;
67544;SDS011;54380;47.770;11.150;2022-10-03T04:47:14;9.40;;;1.83;;
67544;SDS011;54380;47.770;11.150;2022-10-03T04:49:48;11.68;;;1.92;;
67544;SDS011;54380;47.770;11.150;2022-10-03T04:52:24;4.28;;;0.70;;
67544;SDS011;54380;47.770;11.150;2022-10-03T04:55:00;8.60;;;0.95;;
67544;SDS011;54380;47.770;11.150;2022-10-03T04:57:35;8.00;;;1.38;;
67544;SDS011;54380;47.770;11.150;2022-10-03T05:00:20;5.80;;;0.90;;
67544;SDS011;54380;47.770;11.150;2022-10-03T05:02:51;5.53;;;0.75;;
67544;SDS011;54380;47.770;11.150;2022-10-03T05:05:26;4.57;;;0.70;;
67544;SDS011;54380;47.770;11.150;2022-10-03T05:08:11;10.90;;;2.33;;
67544;SDS011;54380;47.770;11.150;2022-10-03T05:10:49;11.85;;;1.70;;
67544;SDS011;54380;47.770;11.150;2022-10-03T05:13:28;5.88;;;0.98;;
67544;SDS011;54380;47.770;11.150;2022-10-03T05:16:07;5.43;;;1.05;;
67544;SDS011;54380;47.770;11.150;2022-10-03T05:18:45;4.50;;;0.70;;
67544;SDS011;54380;47.770;11.150;2022-10-03T05:21:21;7.35;;;1.30;;
67544;SDS011;54380;47.770;11.150;2022-10-03T05:23:57;5.32;;;1.00;;
67544;SDS011;54380;47.770;11.150;2022-10-03T05:26:32;9.82;;;1.33;;
67544;SDS011;54380;47.770;11.150;2022-10-03T05:29:14;6.50;;;1.23;;
67544;SDS011;54380;47.770;11.150;2022-10-03T05:31:54;10.07;;;1.15;;
67544;SDS011;54380;47.770;11.150;2022-10-03T05:34:49;9.35;;;1.52;;
67544;SDS011;54380;47.770;11.150;2022-10-03T05:37:31;9.25;;;1.60;;
67544;SDS011;54380;47.770;11.150;2022-10-03T05:40:14;6.60;;;1.13;;
67544;SDS011;54380;47.770;11.150;2022-10-03T05:45:28;5.63;;;1.30;;
67544;SDS011;54380;47.770;11.150;2022-10-03T05:48:08;9.10;;;1.77;;
67544;SDS011;54380;47.770;11.150;2022-10-03T05:53:50;8.15;;;1.30;;
67544;SDS011;54380;47.770;11.150;2022-10-03T06:00:03;11.15;;;2.15;;
67544;SDS011;54380;47.770;11.150;2022-10-03T06:02:51;10.98;;;2.13;;
67544;SDS011;54380;47.770;11.150;2022-10-03T06:05:32;6.38;;;1.40;;
67544;SDS011;54380;47.770;11.150;2022-10-03T06:11:13;9.88;;;1.83;;
67544;SDS011;54380;47.770;11.150;2022-10-03T06:14:04;9.77;;;2.67;;
67544;SDS011;54380;47.770;11.150;2022-10-03T06:16:42;11.23;;;2.53;;
67544;SDS011;54380;47.770;11.150;2022-10-03T06:19:24;10.43;;;2.05;;
67544;SDS011;54380;47.770;11.150;2022-10-03T06:31:53;10.32;;;2.80;;
67544;SDS011;54380;47.770;11.150;2022-10-03T06:34:40;10.35;;;2.13;;
67544;SDS011;54380;47.770;11.150;2022-10-03T06:37:32;9.13;;;2.03;;
67544;SDS011;54380;47.770;11.150;2022-10-03T06:40:57;10.38;;;2.83;;
67544;SDS011;54380;47.770;11.150;2022-10-03T06:43:54;11.57;;;2.90;;
67544;SDS011;54380;47.770;11.150;2022-10-03T06:46:42;5.75;;;0.80;;
67544;SDS011;54380;47.770;11.150;2022-10-03T06:49:27;10.32;;;2.10;;
67544;SDS011;54380;47.770;11.150;2022-10-03T06:58:03;11.27;;;2.05;;
67544;SDS011;54380;47.770;11.150;2022-10-03T07:00:50;8.70;;;1.52;;
67544;SDS011;54380;47.770;11.150;2022-10-03T07:12:54;9.38;;;1.67;;
67544;SDS011;54380;47.770;11.150;2022-10-03T07:15:50;11.55;;;2.55;;
67544;SDS011;54380;47.770;11.150;2022-10-03T07:18:56;8.65;;;1.80;;
67544;SDS011;54380;47.770;11.150;2022-10-03T07:24:45;7.07;;;1.75;;
67544;SDS011;54380;47.770;11.150;2022-10-03T07:27:42;11.35;;;2.70;;
67544;SDS011;54380;47.770;11.150;2022-10-03T07:30:18;9.23;;;2.10;;
67544;SDS011;54380;47.770;11.150;2022-10-03T07:33:18;7.75;;;1.27;;
67544;SDS011;54380;47.770;11.150;2022-10-03T07:39:35;8.07;;;1.55;;
67544;SDS011;54380;47.770;11.150;2022-10-03T07:42:29;7.10;;;1.30;;
67544;SDS011;54380;47.770;11.150;2022-10-03T07:45:29;9.32;;;2.20;;
67544;SDS011;54380;47.770;11.150;2022-10-03T07:51:11;14.05;;;2.90;;
67544;SDS011;54380;47.770;11.150;2022-10-03T07:53:59;8.18;;;2.00;;
67544;SDS011;54380;47.770;11.150;2022-10-03T07:57:04;9.27;;;1.70;;
67544;SDS011;54380;47.770;11.150;2022-10-03T08:00:05;7.63;;;1.48;;
67544;SDS011;54380;47.770;11.150;2022-10-03T08:08:52;11.85;;;2.95;;
67544;SDS011;54380;47.770;11.150;2022-10-03T08:14:42;7.10;;;1.25;;
67544;SDS011;54380;47.770;11.150;2022-10-03T08:17:29;10.32;;;1.85;;
67544;SDS011;54380;47.770;11.150;2022-10-03T08:20:18;9.30;;;1.85;;
67544;SDS011;54380;47.770;11.150;2022-10-03T08:23:01;9.73;;;1.52;;
67544;SDS011;54380;47.770;11.150;2022-10-03T08:25:57;5.57;;;1.05;;
67544;SDS011;54380;47.770;11.150;2022-10-03T08:28:45;10.63;;;2.10;;
67544;SDS011;54380;47.770;11.150;2022-10-03T08:31:49;8.55;;;1.73;;
67544;SDS011;54380;47.770;11.150;2022-10-03T08:34:43;4.53;;;0.68;;
67544;SDS011;54380;47.770;11.150;2022-10-03T08:37:45;13.05;;;1.95;;
67544;SDS011;54380;47.770;11.150;2022-10-03T08:40:45;5.40;;;1.25;;
67544;SDS011;54380;47.770;11.150;2022-10-03T08:49:40;9.40;;;1.40;;
67544;SDS011;54380;47.770;11.150;2022-10-03T08:52:32;7.35;;;1.70;;
67544;SDS011;54380;47.770;11.150;2022-10-03T08:55:14;8.77;;;1.58;;
67544;SDS011;54380;47.770;11.150;2022-10-03T09:01:17;8.52;;;1.38;;
67544;SDS011;54380;47.770;11.150;2022-10-03T09:07:21;7.95;;;1.30;;
67544;SDS011;54380;47.770;11.150;2022-10-03T09:13:34;6.47;;;1.15;;
67544;SDS011;54380;47.770;11.150;2022-10-03T09:16:49;10.02;;;1.73;;
67544;SDS011;54380;47.770;11.150;2022-10-03T09:19:40;12.50;;;1.75;;
67544;SDS011;54380;47.770;11.150;2022-10-03T09:25:20;11.05;;;1.92;;
67544;SDS011;54380;47.770;11.150;2022-10-03T09:27:56;9.57;;;1.77;;
67544;SDS011;54380;47.770;11.150;2022-10-03T09:30:52;8.15;;;1.40;;
67544;SDS011;54380;47.770;11.150;2022-10-03T09:33:45;7.35;;;1.00;;
67544;SDS011;54380;47.770;11.150;2022-10-03T09:42:53;7.47;;;1.00;;
67544;SDS011;54380;47.770;11.150;2022-10-03T09:52:09;7.20;;;0.80;;
67544;SDS011;54380;47.770;11.150;2022-10-03T09:54:57;6.05;;;1.30;;
67544;SDS011;54380;47.770;11.150;2022-10-03T09:57:52;10.00;;;1.63;;
67544;SDS011;54380;47.770;11.150;2022-10-03T10:00:39;7.47;;;1.02;;
67544;SDS011;54380;47.770;11.150;2022-10-03T10:06:43;12.02;;;1.65;;
67544;SDS011;54380;47.770;11.150;2022-10-03T10:09:39;10.02;;;2.28;;
67544;SDS011;54380;47.770;11.150;2022-10-03T10:12:28;5.78;;;0.82;;
67544;SDS011;54380;47.770;11.150;2022-10-03T10:15:17;6.88;;;1.10;;
67544;SDS011;54380;47.770;11.150;2022-10-03T10:18:05;14.07;;;1.30;;
67544;SDS011;54380;47.770;11.150;2022-10-03T10:21:17;8.25;;;1.75;;
67544;SDS011;54380;47.770;11.150;2022-10-03T10:24:08;10.70;;;1.25;;
67544;SDS011;54380;47.770;11.150;2022-10-03T10:27:15;7.35;;;1.38;;
67544;SDS011;54380;47.770;11.150;2022-10-03T10:52:07;8.13;;;1.30;;
67544;SDS011;54380;47.770;11.150;2022-10-03T10:58:37;8.10;;;1.40;;
67544;SDS011;54380;47.770;11.150;2022-10-03T11:11:27;11.27;;;1.27;;
67544;SDS011;54380;47.770;11.150;2022-10-03T11:14:25;8.75;;;1.00;;
67544;SDS011;54380;47.770;11.150;2022-10-03T11:23:43;7.60;;;0.88;;
67544;SDS011;54380;47.770;11.150;2022-10-03T11:30:02;5.30;;;0.73;;
67544;SDS011;54380;47.770;11.150;2022-10-03T11:39:14;6.63;;;0.75;;
67544;SDS011;54380;47.770;11.150;2022-10-03T11:41:52;8.70;;;0.80;;
67544;SDS011;54380;47.770;11.150;2022-10-03T11:50:41;5.20;;;0.65;;
67544;SDS011;54380;47.770;11.150;2022-10-03T11:53:40;6.65;;;0.60;;
67544;SDS011;54380;47.770;11.150;2022-10-03T11:56:41;4.78;;;0.75;;
67544;SDS011;54380;47.770;11.150;2022-10-03T11:59:19;6.90;;;0.70;;
67544;SDS011;54380;47.770;11.150;2022-10-03T12:02:13;8.43;;;0.85;;
67544;SDS011;54380;47.770;11.150;2022-10-03T12:05:05;6.35;;;0.70;;
67544;SDS011;54380;47.770;11.150;2022-10-03T12:07:43;5.00;;;0.70;;
67544;SDS011;54380;47.770;11.150;2022-10-03T12:10:36;5.88;;;1.08;;
67544;SDS011;54380;47.770;11.150;2022-10-03T12:13:28;4.00;;;0.40;;
67544;SDS011;54380;47.770;11.150;2022-10-03T12:16:02;2.10;;;0.40;;
67544;SDS011;54380;47.770;11.150;2022-10-03T12:18:48;5.53;;;0.60;;
67544;SDS011;54380;47.770;11.150;2022-10-03T12:21:31;5.47;;;0.60;;
67544;SDS011;54380;47.770;11.150;2022-10-03T12:24:17;10.68;;;1.08;;
67544;SDS011;54380;47.770;11.150;2022-10-03T12:26:52;5.85;;;0.80;;
67544;SDS011;54380;47.770;11.150;2022-10-03T12:29:25;8.00;;;1.27;;
67544;SDS011;54380;47.770;11.150;2022-10-03T12:32:12;6.45;;;1.38;;
67544;SDS011;54380;47.770;11.150;2022-10-03T12:35:13;5.60;;;0.70;;
67544;SDS011;54380;47.770;11.150;2022-10-03T12:38:06;8.20;;;0.98;;
67544;SDS011;54380;47.770;11.150;2022-10-03T12:40:49;6.10;;;0.80;;
67544;SDS011;54380;47.770;11.150;2022-10-03T12:43:40;9.10;;;0.90;;
67544;SDS011;54380;47.770;11.150;2022-10-03T12:46:24;7.65;;;0.63;;
67544;SDS011;54380;47.770;11.150;2022-10-03T12:49:02;6.40;;;1.00;;
67544;SDS011;54380;47.770;11.150;2022-10-03T12:51:38;7.22;;;1.00;;
67544;SDS011;54380;47.770;11.150;2022-10-03T12:54:24;8.68;;;1.02;;
67544;SDS011;54380;47.770;11.150;2022-10-03T13:00:22;5.15;;;1.13;;
67544;SDS011;54380;47.770;11.150;2022-10-03T13:12:18;7.15;;;0.80;;
67544;SDS011;54380;47.770;11.150;2022-10-03T13:18:32;3.63;;;0.88;;
67544;SDS011;54380;47.770;11.150;2022-10-03T13:21:10;5.85;;;0.82;;
67544;SDS011;54380;47.770;11.150;2022-10-03T13:24:03;6.32;;;0.70;;
67544;SDS011;54380;47.770;11.150;2022-10-03T13:26:41;8.38;;;0.75;;
67544;SDS011;54380;47.770;11.150;2022-10-03T13:29:21;6.95;;;0.80;;
67544;SDS011;54380;47.770;11.150;2022-10-03T13:32:02;5.93;;;0.73;;
67544;SDS011;54380;47.770;11.150;2022-10-03T13:34:45;7.07;;;1.08;;
67544;SDS011;54380;47.770;11.150;2022-10-03T13:37:53;7.47;;;0.90;;
67544;SDS011;54380;47.770;11.150;2022-10-03T13:40:34;7.43;;;0.80;;
67544;SDS011;54380;47.770;11.150;2022-10-03T13:43:08;7.30;;;0.80;;
67544;SDS011;54380;47.770;11.150;2022-10-03T13:45:53;5.68;;;0.70;;
67544;SDS011;54380;47.770;11.150;2022-10-03T13:48:25;4.55;;;0.82;;
67544;SDS011;54380;47.770;11.150;2022-10-03T13:51:04;4.60;;;0.70;;
67544;SDS011;54380;47.770;11.150;2022-10-03T13:53:51;5.25;;;0.90;;
67544;SDS011;54380;47.770;11.150;2022-10-03T13:56:33;9.30;;;0.85;;
67544;SDS011;54380;47.770;11.150;2022-10-03T13:59:36;7.07;;;1.10;;
67544;SDS011;54380;47.770;11.150;2022-10-03T14:02:15;6.00;;;1.00;;
67544;SDS011;54380;47.770;11.150;2022-10-03T14:05:04;7.07;;;0.95;;
67544;SDS011;54380;47.770;11.150;2022-10-03T14:08:03;6.50;;;0.70;;
67544;SDS011;54380;47.770;11.150;2022-10-03T14:11:03;7.60;;;1.13;;
67544;SDS011;54380;47.770;11.150;2022-10-03T14:14:05;6.05;;;1.20;;
67544;SDS011;54380;47.770;11.150;2022-10-03T14:17:10;6.90;;;0.77;;
67544;SDS011;54380;47.770;11.150;2022-10-03T14:19:46;8.68;;;0.90;;
67544;SDS011;54380;47.770;11.150;2022-10-03T14:22:33;5.20;;;0.73;;
67544;SDS011;54380;47.770;11.150;2022-10-03T14:25:19;8.13;;;1.00;;
67544;SDS011;54380;47.770;11.150;2022-10-03T14:28:06;7.78;;;1.05;;
67544;SDS011;54380;47.770;11.150;2022-10-03T14:30:58;7.03;;;0.70;;
67544;SDS011;54380;47.770;11.150;2022-10-03T20:31:50;11.85;;;2.75;;
67544;SDS011;54380;47.770;11.150;2022-10-03T20:34:38;13.57;;;2.60;;
67544;SDS011;54380;47.770;11.150;2022-10-03T20:37:25;10.55;;;2.88;;
67544;SDS011;54380;47.770;11.150;2022-10-03T20:40:21;10.57;;;2.03;;
67544;SDS011;54380;47.770;11.150;2022-10-03T20:43:16;11.38;;;1.98;;
67544;SDS011;54380;47.770;11.150;2022-10-03T20:46:14;11.18;;;1.90;;
67544;SDS011;54380;47.770;11.150;2022-10-03T20:51:58;9.68;;;1.77;;
67544;SDS011;54380;47.770;11.150;2022-10-03T20:54:33;7.43;;;1.42;;
67544;SDS011;54380;47.770;11.150;2022-10-03T20:57:03;7.90;;;1.80;;
67544;SDS011;54380;47.770;11.150;2022-10-03T20:59:42;7.95;;;1.65;;
67544;SDS011;54380;47.770;11.150;2022-10-03T21:02:26;9.25;;;1.95;;
67544;SDS011;54380;47.770;11.150;2022-10-03T21:05:13;7.15;;;1.40;;
67544;SDS011;54380;47.770;11.150;2022-10-03T21:10:58;7.55;;;1.10;;
67544;SDS011;54380;47.770;11.150;2022-10-03T21:13:30;7.18;;;1.00;;
67544;SDS011;54380;47.770;11.150;2022-10-03T21:16:03;6.93;;;1.00;;
67544;SDS011;54380;47.770;11.150;2022-10-03T21:18:44;5.28;;;0.93;;
67544;SDS011;54380;47.770;11.150;2022-10-03T21:21:17;7.50;;;1.38;;
67544;SDS011;54380;47.770;11.150;2022-10-03T21:23:57;9.45;;;1.20;;
67544;SDS011;54380;47.770;11.150;2022-10-03T21:26:40;7.70;;;0.98;;
67544;SDS011;54380;47.770;11.150;2022-10-03T21:29:25;7.55;;;1.10;;
67544;SDS011;54380;47.770;11.150;2022-10-03T21:32:12;6.68;;;1.33;;
67544;SDS011;54380;47.770;11.150;2022-10-03T21:34:51;9.07;;;1.42;;
67544;SDS011;54380;47.770;11.150;2022-10-03T21:37:42;7.13;;;1.38;;
67544;SDS011;54380;47.770;11.150;2022-10-03T21:56:14;7.60;;;1.23;;
67544;SDS011;54380;47.770;11.150;2022-10-03T22:04:59;11.80;;;1.70;;
67544;SDS011;54380;47.770;11.150;2022-10-03T22:07:48;71.32;;;3.20;;
67544;SDS011;54380;47.770;11.150;2022-10-03T22:10:35;73.35;;;5.15;;
67544;SDS011;54380;47.770;11.150;2022-10-03T22:13:05;120.25;;;4.18;;
67544;SDS011;54380;47.770;11.150;2022-10-03T22:15:36;31.77;;;2.58;;
67544;SDS011;54380;47.770;11.150;2022-10-03T22:18:21;55.40;;;3.45;;
67544;SDS011;54380;47.770;11.150;2022-10-03T22:21:04;39.45;;;2.47;;
67544;SDS011;54380;47.770;11.150;2022-10-03T22:23:51;34.30;;;2.00;;
67544;SDS011;54380;47.770;11.150;2022-10-03T22:26:34;23.80;;;1.90;;
67544;SDS011;54380;47.770;11.150;2022-10-03T22:29:22;76.82;;;2.40;;
67544;SDS011;54380;47.770;11.150;2022-10-03T22:34:45;40.45;;;2.15;;
67544;SDS011;54380;47.770;11.150;2022-10-03T22:37:31;29.08;;;1.38;;
67544;SDS011;54380;47.770;11.150;2022-10-03T22:40:12;14.95;;;1.15;;
67544;SDS011;54380;47.770;11.150;2022-10-03T22:42:59;12.63;;;1.40;;
67544;SDS011;54380;47.770;11.150;2022-10-03T22:45:31;13.32;;;1.13;;
67544;SDS011;54380;47.770;11.150;2022-10-03T22:48:09;4.72;;;0.90;;
67544;SDS011;54380;47.770;11.150;2022-10-03T22:50:54;16.92;;;1.00;;
67544;SDS011;54380;47.770;11.150;2022-10-03T22:53:37;15.20;;;1.40;;
67544;SDS011;54380;47.770;11.150;2022-10-03T22:56:32;17.73;;;1.00;;
67544;SDS011;54380;47.770;11.150;2022-10-03T23:08:28;8.18;;;1.00;;
67544;SDS011;54380;47.770;11.150;2022-10-03T23:11:15;10.55;;;0.77;;
67544;SDS011;54380;47.770;11.150;2022-10-03T23:13:51;8.68;;;0.82;;
67544;SDS011;54380;47.770;11.150;2022-10-03T23:16:42;5.72;;;0.77;;
67544;SDS011;54380;47.770;11.150;2022-10-03T23:19:28;5.68;;;0.75;;
67544;SDS011;54380;47.770;11.150;2022-10-03T23:22:02;5.45;;;0.63;;
67544;SDS011;54380;47.770;11.150;2022-10-03T23:24:39;3.25;;;0.60;;
67544;SDS011;54380;47.770;11.150;2022-10-03T23:27:31;6.45;;;0.70;;
67544;SDS011;54380;47.770;11.150;2022-10-03T23:33:46;17.35;;;1.52;;
67544;SDS011;54380;47.770;11.150;2022-10-03T23:36:19;4.32;;;0.80;;
67544;SDS011;54380;47.770;11.150;2022-10-03T23:38:50;4.82;;;0.77;;
67544;SDS011;54380;47.770;11.150;2022-10-03T23:51:01;8.48;;;0.73;;
67544;SDS011;54380;47.770;11.150;2022-10-03T23:53:46;8.48;;;0.60;;
67544;SDS011;54380;47.770;11.150;2022-10-03T23:56:32;28.67;;;1.13;;
67544;SDS011;54380;47.770;11.150;2022-10-03T23:59:07;13.88;;;1.10;;
